createdAt,value
2017-09-12T00:00:22.315Z,730.54
2017-09-12T00:01:22.297Z,730.51
2017-09-12T00:02:22.276Z,730.55
2017-09-12T00:03:22.256Z,730.49
2017-09-12T00:04:22.287Z,730.53
2017-09-12T00:05:22.216Z,730.50
2017-09-12T00:06:22.197Z,730.54
2017-09-12T00:07:22.179Z,730.52
2017-09-12T00:08:22.161Z,730.53
2017-09-12T00:09:22.141Z,730.46
2017-09-12T00:10:22.124Z,730.48
2017-09-12T00:11:22.101Z,730.49
2017-09-12T00:12:22.080Z,730.54
2017-09-12T00:13:22.064Z,730.51
2017-09-12T00:14:22.043Z,730.52
2017-09-12T00:15:22.022Z,730.48
2017-09-12T00:16:22.018Z,730.49
2017-09-12T00:28:50.840Z,730.54
2017-09-12T06:50:41.265Z,730.24
2017-09-12T06:51:41.247Z,730.19
2017-09-12T06:52:41.232Z,730.22
2017-09-12T06:53:41.232Z,730.26
2017-09-12T06:54:41.195Z,730.20
2017-09-12T06:55:41.179Z,730.21
2017-09-12T06:56:41.161Z,730.25
2017-09-12T06:57:41.143Z,730.22
2017-09-12T06:58:41.129Z,730.23
2017-09-12T06:59:41.110Z,730.25
2017-09-12T07:00:41.093Z,730.26
2017-09-12T07:01:41.076Z,730.29
2017-09-12T07:02:41.058Z,730.28
2017-09-12T07:03:41.038Z,730.34
2017-09-12T07:04:41.024Z,730.36
2017-09-12T07:05:41.003Z,730.33
2017-09-12T07:06:40.988Z,730.31
2017-09-12T07:07:40.967Z,730.22
2017-09-12T07:08:40.950Z,730.29
2017-09-12T07:09:40.941Z,730.35
2017-09-12T07:10:40.916Z,730.37
2017-09-12T07:11:40.898Z,730.38
2017-09-12T07:12:40.881Z,730.41
2017-09-12T07:13:40.860Z,730.42
2017-09-12T07:14:40.843Z,730.41
2017-09-12T07:15:40.823Z,730.48
2017-09-12T07:16:40.806Z,730.51
2017-09-12T07:17:40.790Z,730.44
2017-09-12T07:18:40.768Z,730.52
2017-09-12T07:19:40.751Z,730.49
2017-09-12T07:20:40.737Z,730.59
2017-09-12T07:21:40.718Z,730.50
2017-09-12T07:22:40.701Z,730.57
2017-09-12T07:23:40.681Z,730.59
2017-09-12T07:24:40.664Z,730.64
2017-09-12T07:25:40.646Z,730.64
2017-09-12T07:26:40.625Z,730.59
2017-09-12T07:27:40.610Z,730.64
2017-09-12T07:28:40.592Z,730.65
2017-09-12T07:29:40.574Z,730.64
2017-09-12T07:30:40.556Z,730.66
2017-09-12T07:31:40.536Z,730.65
2017-09-12T07:32:40.521Z,730.73
2017-09-12T07:33:40.500Z,730.79
2017-09-12T07:34:40.484Z,730.71
2017-09-12T07:35:40.463Z,730.74
2017-09-12T07:36:40.448Z,730.76
2017-09-12T07:37:40.431Z,730.70
2017-09-12T07:38:40.413Z,730.74
2017-09-12T07:39:40.395Z,730.60
2017-09-12T07:40:40.378Z,730.65
2017-09-12T07:41:40.365Z,730.69
2017-09-12T07:42:40.345Z,730.72
2017-09-12T07:43:40.324Z,730.69
2017-09-12T07:44:40.310Z,730.86
2017-09-12T07:45:40.287Z,730.83
2017-09-12T07:46:40.274Z,730.90
2017-09-12T07:47:40.253Z,730.88
2017-09-12T07:48:40.234Z,730.74
2017-09-12T07:49:40.217Z,730.80
2017-09-12T07:50:40.200Z,730.65
2017-09-12T07:51:40.180Z,730.78
2017-09-12T07:52:40.160Z,730.80
2017-09-12T07:53:40.145Z,730.77
2017-09-12T07:54:40.126Z,730.74
2017-09-12T07:55:40.111Z,730.76
2017-09-12T07:56:40.097Z,730.73
2017-09-12T07:57:40.074Z,730.81
2017-09-12T07:58:40.054Z,730.72
2017-09-12T07:59:40.035Z,730.71
2017-09-12T08:00:40.019Z,730.78
2017-09-12T08:01:40.002Z,730.85
2017-09-12T08:02:39.985Z,730.99
2017-09-12T08:03:39.963Z,730.70
2017-09-12T08:04:39.982Z,730.53
2017-09-12T08:05:39.929Z,730.57
2017-09-12T08:06:39.911Z,730.64
2017-09-12T08:07:39.889Z,730.70
2017-09-12T08:08:39.871Z,730.60
2017-09-12T08:09:39.853Z,730.72
2017-09-12T08:10:39.837Z,730.75
2017-09-12T08:11:39.815Z,730.65
2017-09-12T08:12:39.799Z,730.69
2017-09-12T08:13:39.778Z,730.72
2017-09-12T08:14:39.761Z,730.75
2017-09-12T08:15:39.740Z,730.72
2017-09-12T08:16:39.724Z,730.76
2017-09-12T08:17:39.702Z,730.75
2017-09-12T08:18:39.683Z,730.76
2017-09-12T08:19:39.666Z,730.85
2017-09-12T08:20:39.646Z,730.86
2017-09-12T08:21:39.635Z,730.91
2017-09-12T08:22:39.608Z,730.92
2017-09-12T08:23:39.590Z,730.94
2017-09-12T08:24:39.574Z,730.96
2017-09-12T08:25:39.555Z,730.95
2017-09-12T08:26:39.534Z,730.98
2017-09-12T08:27:39.516Z,731.00
2017-09-12T08:28:39.498Z,731.00
2017-09-12T08:29:39.481Z,730.99
2017-09-12T08:30:39.465Z,731.01
2017-09-12T08:31:39.445Z,731.04
2017-09-12T08:32:39.432Z,730.98
2017-09-12T08:33:39.412Z,730.99
2017-09-12T08:34:39.393Z,731.09
2017-09-12T08:35:39.374Z,731.12
2017-09-12T08:36:39.353Z,731.01
2017-09-12T08:37:39.339Z,731.00
2017-09-12T08:38:39.319Z,731.04
2017-09-12T08:39:39.298Z,731.01
2017-09-12T08:40:39.281Z,731.08
2017-09-12T08:41:39.262Z,730.85
2017-09-12T08:42:39.245Z,730.91
2017-09-12T08:43:39.229Z,731.08
2017-09-12T08:44:39.206Z,730.97
2017-09-12T08:45:39.190Z,730.94
2017-09-12T08:46:39.169Z,730.92
2017-09-12T08:47:39.152Z,730.79
2017-09-12T08:48:39.131Z,730.87
2017-09-12T08:49:39.113Z,730.83
2017-09-12T08:50:39.095Z,730.84
2017-09-12T08:51:39.077Z,730.96
2017-09-12T08:52:39.057Z,730.96
2017-09-12T08:53:39.038Z,730.84
2017-09-12T08:54:39.019Z,730.73
2017-09-12T08:55:38.999Z,730.74
2017-09-12T08:56:38.982Z,730.73
2017-09-12T08:57:38.962Z,730.54
2017-09-12T08:58:38.946Z,730.72
2017-09-12T08:59:38.926Z,730.72
2017-09-12T09:00:38.904Z,730.91
2017-09-12T09:01:38.884Z,730.77
2017-09-12T09:02:38.867Z,730.70
2017-09-12T09:03:38.851Z,730.56
2017-09-12T09:04:38.826Z,730.67
2017-09-12T09:05:38.806Z,730.65
2017-09-12T09:06:38.811Z,730.65
2017-09-12T09:07:38.767Z,730.71
2017-09-12T09:08:38.748Z,730.73
2017-09-12T09:09:38.730Z,730.72
2017-09-12T09:10:38.712Z,730.58
2017-09-12T09:11:38.715Z,730.68
2017-09-12T09:12:38.671Z,730.76
2017-09-12T09:13:38.650Z,730.89
2017-09-12T09:14:38.632Z,730.98
2017-09-12T09:15:38.612Z,730.71
2017-09-12T09:16:38.590Z,730.78
2017-09-12T09:17:38.571Z,730.86
2017-09-12T09:18:38.554Z,730.86
2017-09-12T09:19:38.532Z,730.85
2017-09-12T09:20:38.512Z,730.96
2017-09-12T09:21:38.496Z,731.09
2017-09-12T09:22:38.478Z,731.08
2017-09-12T09:23:38.454Z,730.93
2017-09-12T09:24:38.436Z,731.16
2017-09-12T09:25:38.414Z,731.17
2017-09-12T09:26:38.398Z,731.17
2017-09-12T09:27:38.375Z,731.18
2017-09-12T09:28:38.360Z,731.23
2017-09-12T09:29:38.340Z,731.17
2017-09-12T09:30:38.320Z,731.19
2017-09-12T09:31:38.299Z,731.26
2017-09-12T09:32:38.281Z,731.26
2017-09-12T09:33:38.262Z,731.15
2017-09-12T09:34:38.240Z,731.21
2017-09-12T09:35:38.225Z,731.29
2017-09-12T09:36:38.201Z,731.27
2017-09-12T09:37:38.183Z,731.15
2017-09-12T09:38:38.163Z,731.41
2017-09-12T09:39:38.196Z,731.42
2017-09-12T09:40:38.126Z,731.50
2017-09-12T09:41:38.104Z,731.36
2017-09-12T09:42:38.087Z,731.35
2017-09-12T09:43:38.067Z,731.48
2017-09-12T09:44:38.051Z,731.41
2017-09-12T09:48:37.975Z,731.33
2017-09-12T09:49:37.955Z,731.36
2017-09-12T09:50:37.934Z,731.29
2017-09-12T09:51:37.916Z,731.46
2017-09-12T09:52:37.898Z,731.33
2017-09-12T09:53:37.878Z,731.38
2017-09-12T09:54:37.860Z,731.36
2017-09-12T09:55:37.840Z,731.35
2017-09-12T09:56:37.818Z,731.45
2017-09-12T09:57:37.802Z,731.37
2017-09-12T09:58:37.783Z,731.26
2017-09-12T09:59:37.762Z,731.54
2017-09-12T10:00:37.743Z,731.55
2017-09-12T10:01:37.725Z,731.61
2017-09-12T10:02:37.709Z,731.56
2017-09-12T10:03:37.686Z,731.53
2017-09-12T10:04:37.667Z,731.64
2017-09-12T10:05:37.657Z,731.72
2017-09-12T10:06:37.629Z,731.76
2017-09-12T10:07:37.614Z,731.79
2017-09-12T10:08:37.593Z,731.74
2017-09-12T10:09:37.572Z,731.65
2017-09-12T10:10:37.555Z,731.69
2017-09-12T10:11:37.537Z,731.67
2017-09-12T10:12:37.519Z,731.73
2017-09-12T10:13:37.503Z,731.75
2017-09-12T10:14:37.482Z,731.67
2017-09-12T10:15:37.465Z,731.64
2017-09-12T10:16:37.443Z,731.82
2017-09-12T10:17:37.428Z,731.85
2017-09-12T10:18:37.407Z,731.82
2017-09-12T10:19:37.391Z,731.83
2017-09-12T10:20:37.373Z,731.91
2017-09-12T10:21:37.356Z,731.86
2017-09-12T10:22:37.337Z,731.90
2017-09-12T10:23:37.315Z,731.91
2017-09-12T10:24:37.325Z,731.89
2017-09-12T10:25:37.285Z,731.84
2017-09-12T10:26:37.261Z,731.90
2017-09-12T10:27:37.243Z,731.90
2017-09-12T10:28:37.229Z,731.97
2017-09-12T10:29:37.211Z,731.96
2017-09-12T10:30:37.192Z,731.90
2017-09-12T10:31:37.173Z,731.88
2017-09-12T10:32:37.156Z,731.93
2017-09-12T10:33:37.136Z,731.88
2017-09-12T10:34:37.120Z,731.77
2017-09-12T10:35:37.102Z,731.75
2017-09-12T10:36:37.081Z,731.94
2017-09-12T10:37:37.066Z,731.82
2017-09-12T10:38:37.048Z,731.68
2017-09-12T10:39:37.027Z,731.70
2017-09-12T10:40:37.009Z,731.85
2017-09-12T10:41:36.993Z,731.89
2017-09-12T10:42:36.976Z,731.89
2017-09-12T10:43:36.954Z,731.81
2017-09-12T10:44:36.939Z,731.74
2017-09-12T10:45:36.920Z,731.94
2017-09-12T10:46:36.900Z,731.88
2017-09-12T10:47:36.884Z,731.93
2017-09-12T10:48:36.862Z,731.95
2017-09-12T10:49:36.847Z,731.90
2017-09-12T10:50:36.827Z,731.93
2017-09-12T10:51:36.807Z,732.07
2017-09-12T10:52:36.791Z,732.05
2017-09-12T10:53:36.777Z,732.05
2017-09-12T10:54:36.754Z,731.99
2017-09-12T10:55:36.738Z,732.00
2017-09-12T10:56:36.717Z,731.99
2017-09-12T10:57:36.700Z,731.96
2017-09-12T10:58:36.681Z,731.90
2017-09-12T10:59:36.664Z,731.92
2017-09-12T11:00:36.647Z,732.03
2017-09-12T11:01:36.628Z,731.93
2017-09-12T11:02:36.610Z,732.03
2017-09-12T11:03:36.588Z,732.11
2017-09-12T11:04:36.573Z,731.95
2017-09-12T11:05:36.552Z,732.11
2017-09-12T11:06:36.534Z,731.97
2017-09-12T11:07:36.514Z,732.06
2017-09-12T11:08:36.499Z,731.95
2017-09-12T11:09:36.481Z,732.08
2017-09-12T11:10:36.463Z,732.14
2017-09-12T11:11:36.444Z,731.99
2017-09-12T11:12:36.422Z,732.16
2017-09-12T11:13:36.411Z,732.04
2017-09-12T11:14:36.388Z,732.19
2017-09-12T11:15:36.368Z,732.18
2017-09-12T11:16:36.352Z,732.14
2017-09-12T11:17:36.334Z,732.10
2017-09-12T11:18:36.314Z,732.18
2017-09-12T11:19:36.295Z,732.18
2017-09-12T11:20:36.279Z,732.25
2017-09-12T11:21:36.259Z,732.27
2017-09-12T11:22:36.241Z,732.21
2017-09-12T11:23:36.222Z,732.21
2017-09-12T11:24:36.207Z,732.25
2017-09-12T11:25:36.189Z,732.31
2017-09-12T11:26:36.171Z,732.34
2017-09-12T11:27:36.151Z,732.37
2017-09-12T11:28:36.138Z,732.42
2017-09-12T11:29:36.116Z,732.44
2017-09-12T11:30:36.100Z,732.45
2017-09-12T11:31:36.081Z,732.40
2017-09-12T11:32:36.061Z,732.39
2017-09-12T11:33:36.043Z,732.43
2017-09-12T11:34:36.029Z,732.47
2017-09-12T11:35:36.007Z,732.44
2017-09-12T11:36:35.991Z,732.42
2017-09-12T11:37:35.979Z,732.41
2017-09-12T11:38:35.953Z,732.47
2017-09-12T11:39:35.936Z,732.49
2017-09-12T11:40:35.920Z,732.46
2017-09-12T11:41:35.900Z,732.47
2017-09-12T11:42:35.883Z,732.43
2017-09-12T11:43:35.870Z,732.51
2017-09-12T11:44:35.849Z,732.48
2017-09-12T11:45:35.833Z,732.45
2017-09-12T11:46:35.813Z,732.49
2017-09-12T11:47:35.795Z,732.41
2017-09-12T11:48:35.776Z,732.37
2017-09-12T11:49:35.761Z,732.42
2017-09-12T11:50:35.741Z,732.45
2017-09-12T11:51:35.724Z,732.45
2017-09-12T11:52:35.707Z,732.44
2017-09-12T11:53:35.691Z,732.43
2017-09-12T11:54:35.671Z,732.36
2017-09-12T11:55:35.656Z,732.33
2017-09-12T11:56:35.635Z,732.41
2017-09-12T11:57:35.620Z,732.25
2017-09-12T11:58:35.602Z,732.27
2017-09-12T11:59:35.581Z,732.16
2017-09-12T12:00:35.566Z,732.41
2017-09-12T12:01:35.547Z,732.22
2017-09-12T12:02:35.531Z,732.34
2017-09-12T12:03:35.512Z,732.41
2017-09-12T12:04:35.493Z,732.47
2017-09-12T12:05:35.476Z,732.37
2017-09-12T12:06:35.455Z,732.41
2017-09-12T12:07:35.437Z,732.49
2017-09-12T12:08:35.418Z,732.53
2017-09-12T12:09:35.401Z,732.49
2017-09-12T12:10:35.384Z,732.55
2017-09-12T12:11:35.363Z,732.39
2017-09-12T12:12:35.346Z,732.50
2017-09-12T12:13:35.327Z,732.43
2017-09-12T12:14:35.313Z,732.29
2017-09-12T12:15:35.289Z,732.24
2017-09-12T12:16:35.271Z,732.61
2017-09-12T12:17:35.254Z,732.36
2017-09-12T12:18:35.237Z,732.59
2017-09-12T12:19:35.215Z,732.45
2017-09-12T12:20:35.197Z,732.44
2017-09-12T12:21:35.177Z,732.60
2017-09-12T12:22:35.164Z,732.56
2017-09-12T12:23:35.139Z,732.59
2017-09-12T12:24:35.123Z,732.66
2017-09-12T12:25:35.105Z,732.56
2017-09-12T12:26:35.089Z,732.52
2017-09-12T12:27:35.068Z,732.55
2017-09-12T12:28:35.048Z,732.59
2017-09-12T12:29:35.029Z,732.61
2017-09-12T12:30:35.011Z,732.64
2017-09-12T12:31:34.992Z,732.68
2017-09-12T12:32:34.975Z,732.56
2017-09-12T12:33:34.966Z,732.55
2017-09-12T12:34:34.937Z,732.48
2017-09-12T12:35:34.919Z,732.39
2017-09-12T12:36:34.902Z,732.68
2017-09-12T12:37:34.886Z,732.70
2017-09-12T12:38:34.863Z,732.61
2017-09-12T12:39:34.845Z,732.45
2017-09-12T12:40:34.823Z,732.67
2017-09-12T12:41:34.808Z,732.61
2017-09-12T12:42:34.787Z,732.64
2017-09-12T12:43:34.768Z,732.36
2017-09-12T12:44:34.750Z,732.58
2017-09-12T12:45:34.730Z,732.62
2017-09-12T12:46:34.713Z,732.63
2017-09-12T12:47:34.695Z,732.61
2017-09-12T12:48:34.675Z,732.59
2017-09-12T12:49:34.655Z,732.53
2017-09-12T12:50:34.637Z,732.66
2017-09-12T12:51:34.620Z,732.56
2017-09-12T12:52:34.602Z,732.53
2017-09-12T12:53:34.582Z,732.63
2017-09-12T12:54:34.566Z,732.63
2017-09-12T12:55:34.543Z,732.50
2017-09-12T12:56:34.528Z,732.58
2017-09-12T12:57:34.507Z,732.64
2017-09-12T12:58:34.491Z,732.44
2017-09-12T12:59:34.470Z,732.64
2017-09-12T13:00:34.454Z,732.66
2017-09-12T13:01:34.433Z,732.38
2017-09-12T13:02:34.419Z,732.52
2017-09-12T13:03:34.397Z,732.60
2017-09-12T13:04:34.381Z,732.55
2017-09-12T13:05:34.359Z,732.70
2017-09-12T13:06:34.342Z,732.60
2017-09-12T13:07:34.325Z,732.54
2017-09-12T13:08:34.307Z,732.70
2017-09-12T13:09:34.286Z,732.54
2017-09-12T13:10:34.268Z,732.50
2017-09-12T13:11:34.251Z,732.32
2017-09-12T13:12:34.232Z,732.26
2017-09-12T13:13:34.215Z,732.72
2017-09-12T13:14:34.195Z,732.46
2017-09-12T13:15:34.175Z,732.61
2017-09-12T13:16:34.160Z,732.41
2017-09-12T13:17:34.141Z,732.47
2017-09-12T13:18:34.121Z,732.53
2017-09-12T13:19:34.099Z,732.71
2017-09-12T13:20:34.084Z,732.53
2017-09-12T13:21:34.065Z,732.62
2017-09-12T13:22:34.045Z,732.57
2017-09-12T13:23:34.025Z,732.66
2017-09-12T13:24:34.009Z,732.48
2017-09-12T13:25:33.992Z,732.59
2017-09-12T13:26:33.972Z,732.70
2017-09-12T13:27:33.954Z,732.63
2017-09-12T13:28:33.933Z,732.45
2017-09-12T13:29:33.914Z,732.60
2017-09-12T13:30:33.897Z,732.70
2017-09-12T13:31:33.876Z,732.81
2017-09-12T13:32:33.859Z,732.80
2017-09-12T13:33:33.841Z,732.83
2017-09-12T13:34:33.821Z,732.46
2017-09-12T13:35:33.801Z,732.71
2017-09-12T13:36:33.786Z,732.79
2017-09-12T13:37:33.773Z,732.66
2017-09-12T13:38:33.746Z,732.91
2017-09-12T13:39:33.729Z,732.91
2017-09-12T13:40:33.709Z,732.99
2017-09-12T13:41:33.690Z,732.86
2017-09-12T13:42:33.676Z,732.79
2017-09-12T13:43:33.654Z,732.88
2017-09-12T13:44:33.637Z,732.89
2017-09-12T13:45:33.621Z,732.98
2017-09-12T13:46:33.608Z,732.84
2017-09-12T13:47:33.583Z,732.86
2017-09-12T13:48:33.566Z,732.65
2017-09-12T13:49:33.544Z,732.85
2017-09-12T13:50:33.525Z,732.90
2017-09-12T13:51:33.506Z,733.02
2017-09-12T13:52:33.488Z,732.84
2017-09-12T13:53:33.470Z,732.78
